sensor_id;sensor_type;location;lat;lon;timestamp;pressure;altitude;pressure_sealevel;temperature;humidity
50310;BME280;36207;51.850;21.698;2023-12-07T00:01:15;100188.36;;;0.07;83.79
50310;BME280;36207;51.850;21.698;2023-12-07T00:03:41;100189.80;;;0.09;83.69
50310;BME280;36207;51.850;21.698;2023-12-07T00:06:07;100189.75;;;0.09;83.72
50310;BME280;36207;51.850;21.698;2023-12-07T00:08:33;100194.11;;;0.12;83.76
50310;BME280;36207;51.850;21.698;2023-12-07T00:10:59;100190.51;;;0.11;83.77
50310;BME280;36207;51.850;21.698;2023-12-07T00:13:25;100197.58;;;0.12;83.74
50310;BME280;36207;51.850;21.698;2023-12-07T00:15:51;100191.63;;;0.15;83.93
50310;BME280;36207;51.850;21.698;2023-12-07T00:18:17;100193.94;;;0.17;83.99
50310;BME280;36207;51.850;21.698;2023-12-07T00:20:43;100193.95;;;0.17;83.70
50310;BME280;36207;51.850;21.698;2023-12-07T00:23:09;100194.44;;;0.15;83.83
50310;BME280;36207;51.850;21.698;2023-12-07T00:25:35;100190.80;;;0.11;83.89
50310;BME280;36207;51.850;21.698;2023-12-07T00:28:01;100188.48;;;0.12;83.87
50310;BME280;36207;51.850;21.698;2023-12-07T00:30:27;100183.88;;;0.15;84.06
50310;BME280;36207;51.850;21.698;2023-12-07T00:32:52;100191.13;;;0.17;83.87
50310;BME280;36207;51.850;21.698;2023-12-07T00:35:18;100192.27;;;0.18;84.07
50310;BME280;36207;51.850;21.698;2023-12-07T00:37:48;100189.08;;;0.19;84.08
50310;BME280;36207;51.850;21.698;2023-12-07T00:40:14;100192.08;;;0.18;83.81
50310;BME280;36207;51.850;21.698;2023-12-07T00:42:40;100190.27;;;0.19;83.85
50310;BME280;36207;51.850;21.698;2023-12-07T00:45:06;100190.84;;;0.21;83.89
50310;BME280;36207;51.850;21.698;2023-12-07T00:47:32;100187.61;;;0.22;83.76
50310;BME280;36207;51.850;21.698;2023-12-07T00:49:58;100190.91;;;0.25;83.95
50310;BME280;36207;51.850;21.698;2023-12-07T00:52:24;100190.99;;;0.29;83.98
50310;BME280;36207;51.850;21.698;2023-12-07T00:54:50;100193.23;;;0.29;83.85
50310;BME280;36207;51.850;21.698;2023-12-07T00:57:16;100191.95;;;0.28;83.80
50310;BME280;36207;51.850;21.698;2023-12-07T00:59:42;100195.52;;;0.27;83.67
50310;BME280;36207;51.850;21.698;2023-12-07T01:02:08;100193.27;;;0.26;83.90
50310;BME280;36207;51.850;21.698;2023-12-07T01:04:34;100193.95;;;0.26;84.11
50310;BME280;36207;51.850;21.698;2023-12-07T01:07:00;100194.16;;;0.26;84.04
50310;BME280;36207;51.850;21.698;2023-12-07T01:09:26;100198.28;;;0.25;84.03
50310;BME280;36207;51.850;21.698;2023-12-07T01:11:52;100199.86;;;0.25;83.95
50310;BME280;36207;51.850;21.698;2023-12-07T01:14:18;100200.23;;;0.27;84.09
50310;BME280;36207;51.850;21.698;2023-12-07T01:16:44;100200.06;;;0.27;84.17
50310;BME280;36207;51.850;21.698;2023-12-07T01:19:11;100195.83;;;0.25;83.99
50310;BME280;36207;51.850;21.698;2023-12-07T01:21:43;100195.28;;;0.25;84.10
50310;BME280;36207;51.850;21.698;2023-12-07T01:24:09;100195.91;;;0.26;84.16
50310;BME280;36207;51.850;21.698;2023-12-07T01:26:35;100191.21;;;0.25;84.07
50310;BME280;36207;51.850;21.698;2023-12-07T01:29:01;100192.94;;;0.24;83.93
50310;BME280;36207;51.850;21.698;2023-12-07T01:31:29;100193.18;;;0.25;83.94
50310;BME280;36207;51.850;21.698;2023-12-07T01:33:56;100193.16;;;0.28;84.04
50310;BME280;36207;51.850;21.698;2023-12-07T01:36:22;100190.90;;;0.27;84.11
50310;BME280;36207;51.850;21.698;2023-12-07T01:38:48;100192.55;;;0.29;83.98
50310;BME280;36207;51.850;21.698;2023-12-07T01:41:14;100193.45;;;0.31;84.02
50310;BME280;36207;51.850;21.698;2023-12-07T01:43:47;100191.02;;;0.31;84.00
50310;BME280;36207;51.850;21.698;2023-12-07T01:46:14;100187.98;;;0.32;84.07
50310;BME280;36207;51.850;21.698;2023-12-07T01:48:41;100188.23;;;0.33;83.88
50310;BME280;36207;51.850;21.698;2023-12-07T01:51:08;100186.55;;;0.34;83.80
50310;BME280;36207;51.850;21.698;2023-12-07T01:53:34;100183.80;;;0.39;84.12
50310;BME280;36207;51.850;21.698;2023-12-07T01:56:00;100180.86;;;0.40;84.10
50310;BME280;36207;51.850;21.698;2023-12-07T01:58:26;100180.42;;;0.39;83.91
50310;BME280;36207;51.850;21.698;2023-12-07T02:00:52;100177.44;;;0.37;83.82
50310;BME280;36207;51.850;21.698;2023-12-07T02:03:19;100177.71;;;0.36;83.87
50310;BME280;36207;51.850;21.698;2023-12-07T02:05:47;100175.81;;;0.38;83.93
50310;BME280;36207;51.850;21.698;2023-12-07T02:08:15;100182.38;;;0.39;83.77
50310;BME280;36207;51.850;21.698;2023-12-07T02:10:41;100182.63;;;0.40;83.88
50310;BME280;36207;51.850;21.698;2023-12-07T02:13:07;100186.63;;;0.41;83.92
50310;BME280;36207;51.850;21.698;2023-12-07T02:15:35;100188.18;;;0.41;83.99
50310;BME280;36207;51.850;21.698;2023-12-07T02:23:11;100184.70;;;0.46;83.82
50310;BME280;36207;51.850;21.698;2023-12-07T02:28:47;100188.31;;;0.52;83.84
50310;BME280;36207;51.850;21.698;2023-12-07T02:31:13;100187.83;;;0.51;83.77
50310;BME280;36207;51.850;21.698;2023-12-07T02:33:39;100190.52;;;0.48;83.64
50310;BME280;36207;51.850;21.698;2023-12-07T02:36:05;100187.83;;;0.43;83.53
50310;BME280;36207;51.850;21.698;2023-12-07T02:38:32;100192.20;;;0.46;83.80
50310;BME280;36207;51.850;21.698;2023-12-07T02:40:59;100191.48;;;0.54;83.98
50310;BME280;36207;51.850;21.698;2023-12-07T02:43:25;100190.39;;;0.59;83.88
50310;BME280;36207;51.850;21.698;2023-12-07T02:45:52;100191.46;;;0.59;83.55
50310;BME280;36207;51.850;21.698;2023-12-07T02:48:20;100189.55;;;0.59;83.70
50310;BME280;36207;51.850;21.698;2023-12-07T02:50:46;100193.23;;;0.59;83.69
50310;BME280;36207;51.850;21.698;2023-12-07T02:53:12;100192.70;;;0.57;83.59
50310;BME280;36207;51.850;21.698;2023-12-07T02:55:38;100192.72;;;0.56;83.66
50310;BME280;36207;51.850;21.698;2023-12-07T02:58:04;100192.05;;;0.58;83.65
50310;BME280;36207;51.850;21.698;2023-12-07T03:00:32;100195.17;;;0.59;83.65
50310;BME280;36207;51.850;21.698;2023-12-07T03:02:58;100195.33;;;0.59;83.65
50310;BME280;36207;51.850;21.698;2023-12-07T03:05:24;100199.73;;;0.61;83.74
50310;BME280;36207;51.850;21.698;2023-12-07T03:07:50;100200.14;;;0.60;83.63
50310;BME280;36207;51.850;21.698;2023-12-07T03:10:15;100202.23;;;0.58;83.56
50310;BME280;36207;51.850;21.698;2023-12-07T03:12:41;100199.41;;;0.58;83.58
50310;BME280;36207;51.850;21.698;2023-12-07T03:15:08;100195.98;;;0.59;83.61
50310;BME280;36207;51.850;21.698;2023-12-07T03:17:36;100194.80;;;0.61;83.57
50310;BME280;36207;51.850;21.698;2023-12-07T03:20:03;100203.71;;;0.64;83.68
50310;BME280;36207;51.850;21.698;2023-12-07T03:22:31;100203.65;;;0.65;83.60
50310;BME280;36207;51.850;21.698;2023-12-07T03:24:57;100205.86;;;0.66;83.67
50310;BME280;36207;51.850;21.698;2023-12-07T03:27:22;100208.19;;;0.65;83.58
50310;BME280;36207;51.850;21.698;2023-12-07T03:29:48;100208.54;;;0.60;83.40
50310;BME280;36207;51.850;21.698;2023-12-07T03:32:14;100210.07;;;0.58;83.42
50310;BME280;36207;51.850;21.698;2023-12-07T03:34:40;100212.04;;;0.60;83.60
50310;BME280;36207;51.850;21.698;2023-12-07T03:37:06;100210.84;;;0.62;83.61
50310;BME280;36207;51.850;21.698;2023-12-07T03:39:32;100210.27;;;0.63;83.41
50310;BME280;36207;51.850;21.698;2023-12-07T03:41:58;100208.59;;;0.59;83.43
50310;BME280;36207;51.850;21.698;2023-12-07T03:44:24;100205.89;;;0.58;83.58
50310;BME280;36207;51.850;21.698;2023-12-07T03:46:53;100206.41;;;0.56;83.44
50310;BME280;36207;51.850;21.698;2023-12-07T03:49:19;100204.34;;;0.55;83.49
50310;BME280;36207;51.850;21.698;2023-12-07T03:51:45;100203.38;;;0.56;83.59
50310;BME280;36207;51.850;21.698;2023-12-07T03:54:11;100205.57;;;0.57;83.47
50310;BME280;36207;51.850;21.698;2023-12-07T03:56:37;100204.27;;;0.59;83.70
50310;BME280;36207;51.850;21.698;2023-12-07T03:59:03;100202.22;;;0.60;83.58
50310;BME280;36207;51.850;21.698;2023-12-07T04:01:29;100206.06;;;0.60;83.47
50310;BME280;36207;51.850;21.698;2023-12-07T04:03:56;100204.04;;;0.59;83.49
50310;BME280;36207;51.850;21.698;2023-12-07T04:06:24;100201.36;;;0.57;83.42
50310;BME280;36207;51.850;21.698;2023-12-07T04:08:50;100203.27;;;0.56;83.47
50310;BME280;36207;51.850;21.698;2023-12-07T04:11:17;100201.69;;;0.55;83.38
50310;BME280;36207;51.850;21.698;2023-12-07T04:13:43;100204.42;;;0.57;83.48
50310;BME280;36207;51.850;21.698;2023-12-07T04:16:10;100206.27;;;0.57;83.75
50310;BME280;36207;51.850;21.698;2023-12-07T04:18:37;100204.31;;;0.55;83.37
50310;BME280;36207;51.850;21.698;2023-12-07T04:21:03;100208.30;;;0.51;83.44
50310;BME280;36207;51.850;21.698;2023-12-07T04:23:31;100208.31;;;0.49;83.32
50310;BME280;36207;51.850;21.698;2023-12-07T04:25:57;100211.31;;;0.51;83.43
50310;BME280;36207;51.850;21.698;2023-12-07T04:28:23;100217.24;;;0.56;83.71
50310;BME280;36207;51.850;21.698;2023-12-07T04:30:49;100215.16;;;0.58;83.57
50310;BME280;36207;51.850;21.698;2023-12-07T04:33:15;100216.05;;;0.60;83.53
50310;BME280;36207;51.850;21.698;2023-12-07T04:35:40;100215.55;;;0.60;83.42
50310;BME280;36207;51.850;21.698;2023-12-07T04:38:06;100213.29;;;0.60;83.54
50310;BME280;36207;51.850;21.698;2023-12-07T04:40:32;100214.74;;;0.59;83.46
50310;BME280;36207;51.850;21.698;2023-12-07T04:42:58;100217.02;;;0.59;83.33
50310;BME280;36207;51.850;21.698;2023-12-07T04:45:25;100219.00;;;0.61;83.40
50310;BME280;36207;51.850;21.698;2023-12-07T04:47:50;100217.20;;;0.61;83.49
50310;BME280;36207;51.850;21.698;2023-12-07T04:50:16;100215.45;;;0.62;83.40
50310;BME280;36207;51.850;21.698;2023-12-07T04:52:42;100213.46;;;0.60;83.32
50310;BME280;36207;51.850;21.698;2023-12-07T04:55:08;100213.05;;;0.58;83.32
50310;BME280;36207;51.850;21.698;2023-12-07T04:57:35;100209.62;;;0.55;83.28
50310;BME280;36207;51.850;21.698;2023-12-07T05:00:02;100213.27;;;0.53;83.45
50310;BME280;36207;51.850;21.698;2023-12-07T05:02:32;100211.91;;;0.52;83.45
50310;BME280;36207;51.850;21.698;2023-12-07T05:04:58;100215.45;;;0.52;83.37
50310;BME280;36207;51.850;21.698;2023-12-07T05:07:24;100218.21;;;0.52;83.35
50310;BME280;36207;51.850;21.698;2023-12-07T05:09:50;100214.90;;;0.52;83.54
50310;BME280;36207;51.850;21.698;2023-12-07T05:12:17;100215.39;;;0.53;83.58
50310;BME280;36207;51.850;21.698;2023-12-07T05:14:43;100219.83;;;0.54;83.54
50310;BME280;36207;51.850;21.698;2023-12-07T05:17:09;100217.81;;;0.55;83.58
50310;BME280;36207;51.850;21.698;2023-12-07T05:19:35;100221.85;;;0.56;83.33
50310;BME280;36207;51.850;21.698;2023-12-07T05:22:01;100223.23;;;0.56;83.41
50310;BME280;36207;51.850;21.698;2023-12-07T05:24:27;100225.34;;;0.55;83.36
50310;BME280;36207;51.850;21.698;2023-12-07T05:26:54;100227.71;;;0.56;83.42
50310;BME280;36207;51.850;21.698;2023-12-07T05:29:19;100227.88;;;0.59;83.54
50310;BME280;36207;51.850;21.698;2023-12-07T05:31:48;100228.43;;;0.59;83.53
50310;BME280;36207;51.850;21.698;2023-12-07T05:34:15;100230.56;;;0.56;83.23
50310;BME280;36207;51.850;21.698;2023-12-07T05:36:41;100231.64;;;0.56;83.38
50310;BME280;36207;51.850;21.698;2023-12-07T05:39:07;100236.62;;;0.55;83.31
50310;BME280;36207;51.850;21.698;2023-12-07T05:41:33;100234.05;;;0.51;83.34
50310;BME280;36207;51.850;21.698;2023-12-07T05:43:59;100236.23;;;0.45;83.22
50310;BME280;36207;51.850;21.698;2023-12-07T05:46:25;100240.23;;;0.38;83.23
50310;BME280;36207;51.850;21.698;2023-12-07T05:48:51;100245.02;;;0.32;83.22
50310;BME280;36207;51.850;21.698;2023-12-07T05:51:17;100246.46;;;0.27;83.44
50310;BME280;36207;51.850;21.698;2023-12-07T05:53:44;100245.52;;;0.23;83.45
50310;BME280;36207;51.850;21.698;2023-12-07T05:56:10;100245.51;;;0.23;83.58
50310;BME280;36207;51.850;21.698;2023-12-07T05:58:37;100240.77;;;0.18;83.66
50310;BME280;36207;51.850;21.698;2023-12-07T06:01:03;100245.13;;;0.15;83.57
50310;BME280;36207;51.850;21.698;2023-12-07T06:03:29;100247.97;;;0.15;83.72
50310;BME280;36207;51.850;21.698;2023-12-07T06:05:55;100257.02;;;0.13;83.71
50310;BME280;36207;51.850;21.698;2023-12-07T06:08:22;100260.01;;;0.13;83.61
50310;BME280;36207;51.850;21.698;2023-12-07T06:10:48;100258.80;;;0.15;83.65
50310;BME280;36207;51.850;21.698;2023-12-07T06:13:15;100261.91;;;0.21;83.72
50310;BME280;36207;51.850;21.698;2023-12-07T06:15:41;100264.80;;;0.28;83.82
50310;BME280;36207;51.850;21.698;2023-12-07T06:18:06;100268.44;;;0.30;83.84
50310;BME280;36207;51.850;21.698;2023-12-07T06:20:33;100270.06;;;0.30;83.56
50310;BME280;36207;51.850;21.698;2023-12-07T06:23:00;100272.84;;;0.30;83.69
50310;BME280;36207;51.850;21.698;2023-12-07T06:25:27;100269.43;;;0.34;83.68
50310;BME280;36207;51.850;21.698;2023-12-07T06:27:53;100270.88;;;0.36;83.56
50310;BME280;36207;51.850;21.698;2023-12-07T06:30:19;100272.45;;;0.38;83.62
50310;BME280;36207;51.850;21.698;2023-12-07T06:32:46;100277.67;;;0.39;83.40
50310;BME280;36207;51.850;21.698;2023-12-07T06:35:12;100278.23;;;0.41;83.63
50310;BME280;36207;51.850;21.698;2023-12-07T06:37:38;100280.89;;;0.40;83.49
50310;BME280;36207;51.850;21.698;2023-12-07T06:40:08;100284.13;;;0.39;83.56
50310;BME280;36207;51.850;21.698;2023-12-07T06:42:35;100286.31;;;0.38;83.53
50310;BME280;36207;51.850;21.698;2023-12-07T06:45:02;100286.88;;;0.40;83.63
50310;BME280;36207;51.850;21.698;2023-12-07T06:47:28;100282.70;;;0.42;83.56
50310;BME280;36207;51.850;21.698;2023-12-07T06:49:54;100288.23;;;0.42;83.53
50310;BME280;36207;51.850;21.698;2023-12-07T06:52:24;100290.38;;;0.40;83.42
50310;BME280;36207;51.850;21.698;2023-12-07T06:54:50;100293.09;;;0.36;83.54
50310;BME280;36207;51.850;21.698;2023-12-07T06:57:16;100294.46;;;0.34;83.61
50310;BME280;36207;51.850;21.698;2023-12-07T06:59:42;100295.71;;;0.36;83.68
50310;BME280;36207;51.850;21.698;2023-12-07T07:02:07;100296.09;;;0.38;83.60
50310;BME280;36207;51.850;21.698;2023-12-07T07:04:34;100295.60;;;0.43;83.60
50310;BME280;36207;51.850;21.698;2023-12-07T07:07:00;100293.53;;;0.47;83.69
50310;BME280;36207;51.850;21.698;2023-12-07T07:09:26;100294.05;;;0.50;83.63
50310;BME280;36207;51.850;21.698;2023-12-07T07:11:51;100296.16;;;0.50;83.56
50310;BME280;36207;51.850;21.698;2023-12-07T07:14:19;100295.33;;;0.49;83.61
50310;BME280;36207;51.850;21.698;2023-12-07T07:16:45;100297.38;;;0.48;83.60
50310;BME280;36207;51.850;21.698;2023-12-07T07:19:11;100297.88;;;0.48;83.50
50310;BME280;36207;51.850;21.698;2023-12-07T07:21:37;100303.52;;;0.50;83.61
50310;BME280;36207;51.850;21.698;2023-12-07T07:24:03;100299.05;;;0.54;83.61
50310;BME280;36207;51.850;21.698;2023-12-07T07:26:29;100301.56;;;0.56;83.50
50310;BME280;36207;51.850;21.698;2023-12-07T07:28:55;100302.38;;;0.54;83.29
50310;BME280;36207;51.850;21.698;2023-12-07T07:31:21;100299.27;;;0.51;83.41
50310;BME280;36207;51.850;21.698;2023-12-07T07:33:47;100302.13;;;0.47;83.49
50310;BME280;36207;51.850;21.698;2023-12-07T07:36:13;100304.73;;;0.48;83.36
50310;BME280;36207;51.850;21.698;2023-12-07T07:38:43;100309.23;;;0.53;83.60
50310;BME280;36207;51.850;21.698;2023-12-07T07:41:10;100306.11;;;0.58;83.73
50310;BME280;36207;51.850;21.698;2023-12-07T07:43:37;100307.36;;;0.55;83.26
50310;BME280;36207;51.850;21.698;2023-12-07T07:46:03;100307.23;;;0.52;83.25
50310;BME280;36207;51.850;21.698;2023-12-07T07:48:30;100310.20;;;0.50;83.34
50310;BME280;36207;51.850;21.698;2023-12-07T07:50:57;100308.73;;;0.46;83.24
50310;BME280;36207;51.850;21.698;2023-12-07T07:53:23;100307.63;;;0.41;83.31
50310;BME280;36207;51.850;21.698;2023-12-07T07:55:49;100309.43;;;0.40;83.39
50310;BME280;36207;51.850;21.698;2023-12-07T07:58:15;100312.08;;;0.40;83.40
50310;BME280;36207;51.850;21.698;2023-12-07T08:00:41;100311.19;;;0.42;83.52
50310;BME280;36207;51.850;21.698;2023-12-07T08:03:07;100311.32;;;0.46;83.51
50310;BME280;36207;51.850;21.698;2023-12-07T08:05:34;100315.83;;;0.44;83.36
50310;BME280;36207;51.850;21.698;2023-12-07T08:08:00;100317.55;;;0.42;83.40
50310;BME280;36207;51.850;21.698;2023-12-07T08:10:26;100316.52;;;0.44;83.58
50310;BME280;36207;51.850;21.698;2023-12-07T08:12:51;100311.77;;;0.47;83.46
50310;BME280;36207;51.850;21.698;2023-12-07T08:15:17;100316.31;;;0.52;83.42
50310;BME280;36207;51.850;21.698;2023-12-07T08:17:43;100318.77;;;0.55;83.36
50310;BME280;36207;51.850;21.698;2023-12-07T08:20:10;100323.64;;;0.56;83.30
50310;BME280;36207;51.850;21.698;2023-12-07T08:22:40;100330.92;;;0.51;83.19
50310;BME280;36207;51.850;21.698;2023-12-07T08:25:07;100329.98;;;0.50;83.22
50310;BME280;36207;51.850;21.698;2023-12-07T08:27:37;100330.81;;;0.53;83.31
50310;BME280;36207;51.850;21.698;2023-12-07T08:30:04;100337.13;;;0.53;83.16
50310;BME280;36207;51.850;21.698;2023-12-07T08:32:30;100333.99;;;0.55;83.16
50310;BME280;36207;51.850;21.698;2023-12-07T08:34:56;100337.71;;;0.57;83.15
50310;BME280;36207;51.850;21.698;2023-12-07T08:37:22;100341.97;;;0.56;83.22
50310;BME280;36207;51.850;21.698;2023-12-07T08:39:48;100345.38;;;0.55;83.14
50310;BME280;36207;51.850;21.698;2023-12-07T08:42:15;100347.25;;;0.53;83.02
50310;BME280;36207;51.850;21.698;2023-12-07T08:44:42;100350.79;;;0.50;83.14
50310;BME280;36207;51.850;21.698;2023-12-07T08:47:09;100353.92;;;0.48;83.11
50310;BME280;36207;51.850;21.698;2023-12-07T08:49:35;100359.36;;;0.50;83.20
50310;BME280;36207;51.850;21.698;2023-12-07T08:52:02;100361.36;;;0.54;83.34
50310;BME280;36207;51.850;21.698;2023-12-07T08:54:28;100359.29;;;0.57;83.24
50310;BME280;36207;51.850;21.698;2023-12-07T08:56:55;100359.67;;;0.56;83.12
50310;BME280;36207;51.850;21.698;2023-12-07T08:59:21;100359.42;;;0.57;83.16
50310;BME280;36207;51.850;21.698;2023-12-07T09:01:47;100359.02;;;0.53;82.84
50310;BME280;36207;51.850;21.698;2023-12-07T09:04:13;100358.67;;;0.53;82.84
50310;BME280;36207;51.850;21.698;2023-12-07T09:06:39;100360.00;;;0.52;82.69
50310;BME280;36207;51.850;21.698;2023-12-07T09:09:05;100362.04;;;0.47;82.31
50310;BME280;36207;51.850;21.698;2023-12-07T09:11:31;100361.98;;;0.43;82.51
50310;BME280;36207;51.850;21.698;2023-12-07T09:13:57;100361.60;;;0.43;82.67
50310;BME280;36207;51.850;21.698;2023-12-07T09:16:24;100361.52;;;0.42;82.42
50310;BME280;36207;51.850;21.698;2023-12-07T09:18:52;100362.15;;;0.38;81.99
50310;BME280;36207;51.850;21.698;2023-12-07T09:21:18;100359.30;;;0.31;82.01
50310;BME280;36207;51.850;21.698;2023-12-07T09:23:44;100359.19;;;0.33;82.14
50310;BME280;36207;51.850;21.698;2023-12-07T09:26:10;100353.87;;;0.36;82.33
50310;BME280;36207;51.850;21.698;2023-12-07T09:28:36;100352.59;;;0.44;82.52
50310;BME280;36207;51.850;21.698;2023-12-07T09:31:05;100349.11;;;0.49;82.46
50310;BME280;36207;51.850;21.698;2023-12-07T09:33:31;100350.14;;;0.55;82.36
50310;BME280;36207;51.850;21.698;2023-12-07T09:35:57;100353.20;;;0.56;82.29
50310;BME280;36207;51.850;21.698;2023-12-07T09:38:23;100351.73;;;0.59;82.42
50310;BME280;36207;51.850;21.698;2023-12-07T09:40:53;100349.65;;;0.66;82.71
50310;BME280;36207;51.850;21.698;2023-12-07T09:43:20;100353.33;;;0.72;82.38
50310;BME280;36207;51.850;21.698;2023-12-07T09:45:47;100352.86;;;0.68;81.97
50310;BME280;36207;51.850;21.698;2023-12-07T09:48:13;100350.85;;;0.64;81.98
50310;BME280;36207;51.850;21.698;2023-12-07T09:50:41;100347.75;;;0.64;82.20
50310;BME280;36207;51.850;21.698;2023-12-07T09:53:07;100351.60;;;0.64;82.17
50310;BME280;36207;51.850;21.698;2023-12-07T09:55:34;100350.25;;;0.65;82.34
50310;BME280;36207;51.850;21.698;2023-12-07T09:58:00;100350.55;;;0.69;82.09
50310;BME280;36207;51.850;21.698;2023-12-07T10:00:26;100350.77;;;0.66;81.96
50310;BME280;36207;51.850;21.698;2023-12-07T10:02:52;100347.48;;;0.60;81.45
50310;BME280;36207;51.850;21.698;2023-12-07T10:05:18;100350.66;;;0.57;81.71
50310;BME280;36207;51.850;21.698;2023-12-07T10:07:46;100350.31;;;0.55;81.47
50310;BME280;36207;51.850;21.698;2023-12-07T10:10:18;100348.16;;;0.53;81.55
50310;BME280;36207;51.850;21.698;2023-12-07T10:12:51;100352.37;;;0.55;81.82
50310;BME280;36207;51.850;21.698;2023-12-07T10:15:19;100353.44;;;0.60;82.06
50310;BME280;36207;51.850;21.698;2023-12-07T10:17:54;100356.48;;;0.67;82.03
50310;BME280;36207;51.850;21.698;2023-12-07T10:20:21;100355.70;;;0.73;82.04
50310;BME280;36207;51.850;21.698;2023-12-07T10:23:04;100353.77;;;0.80;81.85
50310;BME280;36207;51.850;21.698;2023-12-07T10:25:31;100354.92;;;0.82;81.42
50310;BME280;36207;51.850;21.698;2023-12-07T10:27:58;100352.59;;;0.75;81.12
50310;BME280;36207;51.850;21.698;2023-12-07T10:30:24;100347.80;;;0.73;81.59
50310;BME280;36207;51.850;21.698;2023-12-07T10:32:52;100349.89;;;0.76;81.59
50310;BME280;36207;51.850;21.698;2023-12-07T10:35:19;100347.80;;;0.78;81.88
50310;BME280;36207;51.850;21.698;2023-12-07T10:37:46;100345.15;;;0.83;81.91
50310;BME280;36207;51.850;21.698;2023-12-07T10:40:13;100347.05;;;0.91;82.09
50310;BME280;36207;51.850;21.698;2023-12-07T10:42:41;100346.67;;;0.99;82.15
50310;BME280;36207;51.850;21.698;2023-12-07T10:45:07;100347.87;;;1.02;81.37
50310;BME280;36207;51.850;21.698;2023-12-07T10:47:36;100347.37;;;0.97;81.23
50310;BME280;36207;51.850;21.698;2023-12-07T10:50:05;100345.15;;;0.96;81.29
50310;BME280;36207;51.850;21.698;2023-12-07T10:52:44;100348.54;;;0.93;80.84
50310;BME280;36207;51.850;21.698;2023-12-07T10:55:21;100345.41;;;0.87;81.18
50310;BME280;36207;51.850;21.698;2023-12-07T10:57:52;100348.83;;;0.91;81.42
50310;BME280;36207;51.850;21.698;2023-12-07T11:00:21;100345.85;;;0.96;81.54
50310;BME280;36207;51.850;21.698;2023-12-07T11:02:50;100346.70;;;1.03;81.94
50310;BME280;36207;51.850;21.698;2023-12-07T11:05:18;100345.66;;;1.08;81.74
50310;BME280;36207;51.850;21.698;2023-12-07T11:07:58;100344.65;;;1.07;81.30
50310;BME280;36207;51.850;21.698;2023-12-07T11:10:36;100346.68;;;1.01;80.34
50310;BME280;36207;51.850;21.698;2023-12-07T11:13:29;100347.49;;;0.95;80.97
50310;BME280;36207;51.850;21.698;2023-12-07T11:15:57;100347.89;;;0.99;81.45
50310;BME280;36207;51.850;21.698;2023-12-07T11:18:27;100346.56;;;1.03;81.38
50310;BME280;36207;51.850;21.698;2023-12-07T11:20:55;100346.91;;;1.00;80.84
50310;BME280;36207;51.850;21.698;2023-12-07T11:23:21;100343.36;;;0.94;80.76
50310;BME280;36207;51.850;21.698;2023-12-07T11:25:48;100343.85;;;0.89;81.09
50310;BME280;36207;51.850;21.698;2023-12-07T11:28:16;100341.36;;;0.90;81.19
50310;BME280;36207;51.850;21.698;2023-12-07T11:30:45;100345.00;;;0.90;80.74
50310;BME280;36207;51.850;21.698;2023-12-07T11:33:11;100341.48;;;0.83;80.74
50310;BME280;36207;51.850;21.698;2023-12-07T11:36:03;100344.07;;;0.81;80.91
50310;BME280;36207;51.850;21.698;2023-12-07T11:38:30;100341.11;;;0.78;80.83
50310;BME280;36207;51.850;21.698;2023-12-07T11:40:56;100341.23;;;0.72;80.77
50310;BME280;36207;51.850;21.698;2023-12-07T11:46:11;100343.61;;;0.65;81.01
50310;BME280;36207;51.850;21.698;2023-12-07T11:48:38;100347.21;;;0.66;80.99
50310;BME280;36207;51.850;21.698;2023-12-07T11:51:08;100348.19;;;0.68;81.00
50310;BME280;36207;51.850;21.698;2023-12-07T11:53:37;100350.07;;;0.71;81.18
50310;BME280;36207;51.850;21.698;2023-12-07T11:56:05;100350.78;;;0.71;80.72
50310;BME280;36207;51.850;21.698;2023-12-07T11:58:34;100350.80;;;0.68;80.99
50310;BME280;36207;51.850;21.698;2023-12-07T12:01:01;100346.83;;;0.72;81.25
50310;BME280;36207;51.850;21.698;2023-12-07T12:03:28;100348.03;;;0.77;81.26
50310;BME280;36207;51.850;21.698;2023-12-07T12:05:55;100342.83;;;0.76;80.85
50310;BME280;36207;51.850;21.698;2023-12-07T12:08:21;100341.63;;;0.73;80.76
50310;BME280;36207;51.850;21.698;2023-12-07T12:10:52;100337.46;;;0.73;80.82
50310;BME280;36207;51.850;21.698;2023-12-07T12:13:19;100337.45;;;0.71;80.63
50310;BME280;36207;51.850;21.698;2023-12-07T12:15:45;100336.72;;;0.69;80.70
50310;BME280;36207;51.850;21.698;2023-12-07T12:18:15;100338.05;;;0.67;80.86
50310;BME280;36207;51.850;21.698;2023-12-07T12:20:44;100339.14;;;0.66;80.73
50310;BME280;36207;51.850;21.698;2023-12-07T12:23:11;100336.17;;;0.59;80.23
50310;BME280;36207;51.850;21.698;2023-12-07T12:25:37;100339.00;;;0.51;80.50
50310;BME280;36207;51.850;21.698;2023-12-07T12:28:04;100340.35;;;0.50;80.82
50310;BME280;36207;51.850;21.698;2023-12-07T12:30:31;100337.74;;;0.49;80.87
50310;BME280;36207;51.850;21.698;2023-12-07T12:32:57;100341.23;;;0.52;80.94
50310;BME280;36207;51.850;21.698;2023-12-07T12:35:26;100342.61;;;0.52;80.94
50310;BME280;36207;51.850;21.698;2023-12-07T12:37:52;100345.91;;;0.53;80.77
50310;BME280;36207;51.850;21.698;2023-12-07T12:40:19;100351.31;;;0.50;80.85
50310;BME280;36207;51.850;21.698;2023-12-07T12:42:46;100353.38;;;0.48;80.87
50310;BME280;36207;51.850;21.698;2023-12-07T12:45:16;100353.86;;;0.44;80.71
50310;BME280;36207;51.850;21.698;2023-12-07T12:47:45;100353.58;;;0.43;80.90
50310;BME280;36207;51.850;21.698;2023-12-07T12:50:13;100353.48;;;0.47;80.95
50310;BME280;36207;51.850;21.698;2023-12-07T12:52:58;100356.85;;;0.52;80.79
50310;BME280;36207;51.850;21.698;2023-12-07T12:55:27;100352.68;;;0.51;80.88
50310;BME280;36207;51.850;21.698;2023-12-07T12:57:55;100354.60;;;0.48;80.70
50310;BME280;36207;51.850;21.698;2023-12-07T13:00:24;100356.77;;;0.44;80.56